LFAC Airport Information

Runway Information
Runway 06 Length 5036 ft width 148 ft
Elevation 11 ft Threshold 0 ft Heading 61
Runway 24 Length 5036 ft Width 148 ft
Elevation 11 ft Threshold 0 ft Heading 241
Airport Frequencies
Type APP Name LILLE APP Frequency 120.275 MHZ
Type ATIS Name ATIS Frequency 135.45 MHZ
Type TWR Name TWR Frequency 128.925 MHZ
Airport Navaids
Airport Weather Information & NOTAM
ADDS - METARS form results

(0836 UTC 20 May 2022)
Data provider http://aviationweather.gov/metar/data/
 
METAR text: LFAC 200830Z AUTO 04002KT 9999 ///CB 15/11 Q1017
Conditions at: LFAC (CALAIS/DUNKERQUE, FR) observed 0830 UTC 20 May 2022
Temperature: 15.0°C (59°F)
Dewpoint: 11.0°C (52°F) [RH = 77%]
Pressure (altimeter): 30.03 inches Hg (1017.0 mb)
Winds: from the NE (40 degrees) at 2 MPH (2 knots; 1.0 m/s)
Visibility: 6 or more miles (10+ km)
Ceiling: unknown
Clouds: missing
Weather: no significant weather observed at this time

METAR text: LFAC 200800Z AUTO 05002KT CAVOK 15/11 Q1017
Conditions at: LFAC (CALAIS/DUNKERQUE, FR) observed 0800 UTC 20 May 2022
Temperature: 15.0°C (59°F)
Dewpoint: 11.0°C (52°F) [RH = 77%]
Pressure (altimeter): 30.03 inches Hg (1017.0 mb)
Winds: from the NE (50 degrees) at 2 MPH (2 knots; 1.0 m/s)
Visibility: 6 or more miles (10+ km)
Ceiling: ceiling and visibility are OK
Clouds: unknown
Weather: no significant weather observed at this time